sensor_id;sensor_type;location;lat;lon;timestamp;temperature;humidity
25963;DHT22;13760;52.588;13.406;2023-09-19T00:00:19;18.80;99.90
25963;DHT22;13760;52.588;13.406;2023-09-19T00:02:51;18.70;99.90
25963;DHT22;13760;52.588;13.406;2023-09-19T00:05:17;18.70;99.90
25963;DHT22;13760;52.588;13.406;2023-09-19T00:07:42;18.70;99.90
25963;DHT22;13760;52.588;13.406;2023-09-19T00:10:08;18.70;99.90
25963;DHT22;13760;52.588;13.406;2023-09-19T00:12:35;18.70;99.90
25963;DHT22;13760;52.588;13.406;2023-09-19T00:15:00;18.70;99.90
25963;DHT22;13760;52.588;13.406;2023-09-19T00:17:27;18.70;99.90
25963;DHT22;13760;52.588;13.406;2023-09-19T00:19:55;18.70;99.90
25963;DHT22;13760;52.588;13.406;2023-09-19T00:22:21;18.60;99.90
25963;DHT22;13760;52.588;13.406;2023-09-19T00:24:46;18.60;99.90
25963;DHT22;13760;52.588;13.406;2023-09-19T00:27:12;18.60;99.90
25963;DHT22;13760;52.588;13.406;2023-09-19T00:29:37;18.60;99.90
25963;DHT22;13760;52.588;13.406;2023-09-19T00:32:06;18.60;99.90
25963;DHT22;13760;52.588;13.406;2023-09-19T00:34:32;18.60;99.90
25963;DHT22;13760;52.588;13.406;2023-09-19T00:36:59;18.50;99.90
25963;DHT22;13760;52.588;13.406;2023-09-19T00:39:25;18.50;99.90
25963;DHT22;13760;52.588;13.406;2023-09-19T00:41:51;18.50;99.90
25963;DHT22;13760;52.588;13.406;2023-09-19T00:44:16;18.50;99.90
25963;DHT22;13760;52.588;13.406;2023-09-19T00:46:43;18.50;99.90
25963;DHT22;13760;52.588;13.406;2023-09-19T00:49:09;18.40;99.90
25963;DHT22;13760;52.588;13.406;2023-09-19T00:51:35;18.40;99.90
25963;DHT22;13760;52.588;13.406;2023-09-19T00:54:02;18.50;99.90
25963;DHT22;13760;52.588;13.406;2023-09-19T00:56:28;18.50;99.90
25963;DHT22;13760;52.588;13.406;2023-09-19T00:58:53;18.40;99.90
25963;DHT22;13760;52.588;13.406;2023-09-19T01:01:20;18.40;99.90
25963;DHT22;13760;52.588;13.406;2023-09-19T01:03:46;18.40;99.90
25963;DHT22;13760;52.588;13.406;2023-09-19T01:06:11;18.40;99.90
25963;DHT22;13760;52.588;13.406;2023-09-19T01:08:37;18.40;99.90
25963;DHT22;13760;52.588;13.406;2023-09-19T01:11:17;18.40;99.90
25963;DHT22;13760;52.588;13.406;2023-09-19T01:13:52;18.40;99.90
25963;DHT22;13760;52.588;13.406;2023-09-19T01:16:36;18.40;99.90
25963;DHT22;13760;52.588;13.406;2023-09-19T01:22:09;18.40;99.90
25963;DHT22;13760;52.588;13.406;2023-09-19T01:30:14;18.40;99.90
25963;DHT22;13760;52.588;13.406;2023-09-19T01:32:39;18.40;99.90
25963;DHT22;13760;52.588;13.406;2023-09-19T01:35:06;18.40;99.90
25963;DHT22;13760;52.588;13.406;2023-09-19T01:37:37;18.40;99.90
25963;DHT22;13760;52.588;13.406;2023-09-19T01:40:07;18.40;99.90
25963;DHT22;13760;52.588;13.406;2023-09-19T01:43:09;18.40;99.90
25963;DHT22;13760;52.588;13.406;2023-09-19T01:51:05;18.40;99.90
25963;DHT22;13760;52.588;13.406;2023-09-19T01:53:56;18.50;99.90
25963;DHT22;13760;52.588;13.406;2023-09-19T01:56:36;18.40;99.90
25963;DHT22;13760;52.588;13.406;2023-09-19T01:59:10;18.40;99.90
25963;DHT22;13760;52.588;13.406;2023-09-19T02:01:37;18.40;99.90
25963;DHT22;13760;52.588;13.406;2023-09-19T02:04:03;18.40;99.90
25963;DHT22;13760;52.588;13.406;2023-09-19T02:06:29;18.40;99.90
25963;DHT22;13760;52.588;13.406;2023-09-19T02:08:55;18.40;99.90
25963;DHT22;13760;52.588;13.406;2023-09-19T02:11:21;18.40;99.90
25963;DHT22;13760;52.588;13.406;2023-09-19T02:13:46;18.30;99.90
25963;DHT22;13760;52.588;13.406;2023-09-19T02:16:12;18.30;99.90
25963;DHT22;13760;52.588;13.406;2023-09-19T02:18:38;18.20;99.90
25963;DHT22;13760;52.588;13.406;2023-09-19T02:21:04;18.20;99.90
25963;DHT22;13760;52.588;13.406;2023-09-19T02:23:32;18.20;99.90
25963;DHT22;13760;52.588;13.406;2023-09-19T02:25:58;18.10;99.90
25963;DHT22;13760;52.588;13.406;2023-09-19T02:28:26;18.10;99.90
25963;DHT22;13760;52.588;13.406;2023-09-19T02:30:55;18.10;99.90
25963;DHT22;13760;52.588;13.406;2023-09-19T02:33:21;18.00;99.90
25963;DHT22;13760;52.588;13.406;2023-09-19T02:35:47;18.00;99.90
25963;DHT22;13760;52.588;13.406;2023-09-19T02:38:12;18.00;99.90
25963;DHT22;13760;52.588;13.406;2023-09-19T02:40:38;18.00;99.90
25963;DHT22;13760;52.588;13.406;2023-09-19T02:43:04;17.90;99.90
25963;DHT22;13760;52.588;13.406;2023-09-19T02:45:30;17.90;99.90
25963;DHT22;13760;52.588;13.406;2023-09-19T02:47:56;17.90;99.90
25963;DHT22;13760;52.588;13.406;2023-09-19T02:50:22;17.90;99.90
25963;DHT22;13760;52.588;13.406;2023-09-19T02:52:48;17.80;99.90
25963;DHT22;13760;52.588;13.406;2023-09-19T02:55:15;17.80;99.90
25963;DHT22;13760;52.588;13.406;2023-09-19T02:57:53;17.80;99.90
25963;DHT22;13760;52.588;13.406;2023-09-19T03:00:20;17.80;99.90
25963;DHT22;13760;52.588;13.406;2023-09-19T03:02:56;17.80;99.90
25963;DHT22;13760;52.588;13.406;2023-09-19T03:05:22;17.80;99.90
25963;DHT22;13760;52.588;13.406;2023-09-19T03:07:51;17.70;99.90
25963;DHT22;13760;52.588;13.406;2023-09-19T03:10:18;17.70;99.90
25963;DHT22;13760;52.588;13.406;2023-09-19T03:12:44;17.70;99.90
25963;DHT22;13760;52.588;13.406;2023-09-19T03:15:09;17.70;99.90
25963;DHT22;13760;52.588;13.406;2023-09-19T03:17:36;17.70;99.90
25963;DHT22;13760;52.588;13.406;2023-09-19T03:20:03;17.70;99.90
25963;DHT22;13760;52.588;13.406;2023-09-19T03:22:34;17.70;99.90
25963;DHT22;13760;52.588;13.406;2023-09-19T03:24:59;17.70;99.90
25963;DHT22;13760;52.588;13.406;2023-09-19T03:27:26;17.70;99.90
25963;DHT22;13760;52.588;13.406;2023-09-19T03:29:52;17.70;99.90
25963;DHT22;13760;52.588;13.406;2023-09-19T03:32:18;17.60;99.90
25963;DHT22;13760;52.588;13.406;2023-09-19T03:34:44;17.70;99.90
25963;DHT22;13760;52.588;13.406;2023-09-19T03:37:09;17.70;99.90
25963;DHT22;13760;52.588;13.406;2023-09-19T03:39:35;17.70;99.90
25963;DHT22;13760;52.588;13.406;2023-09-19T03:42:02;17.60;99.90
25963;DHT22;13760;52.588;13.406;2023-09-19T03:44:29;17.60;99.90
25963;DHT22;13760;52.588;13.406;2023-09-19T03:46:56;17.60;99.90
25963;DHT22;13760;52.588;13.406;2023-09-19T03:49:22;17.70;99.90
25963;DHT22;13760;52.588;13.406;2023-09-19T03:51:48;17.60;99.90
25963;DHT22;13760;52.588;13.406;2023-09-19T03:54:13;17.60;99.90
25963;DHT22;13760;52.588;13.406;2023-09-19T03:56:39;17.60;99.90
25963;DHT22;13760;52.588;13.406;2023-09-19T03:59:04;17.60;99.90
25963;DHT22;13760;52.588;13.406;2023-09-19T04:01:30;17.60;99.90
25963;DHT22;13760;52.588;13.406;2023-09-19T04:03:57;17.60;99.90
25963;DHT22;13760;52.588;13.406;2023-09-19T04:06:23;17.60;99.90
25963;DHT22;13760;52.588;13.406;2023-09-19T04:08:49;17.50;99.90
25963;DHT22;13760;52.588;13.406;2023-09-19T04:11:14;17.50;99.90
25963;DHT22;13760;52.588;13.406;2023-09-19T04:13:40;17.50;99.90
25963;DHT22;13760;52.588;13.406;2023-09-19T04:16:05;17.50;99.90
25963;DHT22;13760;52.588;13.406;2023-09-19T04:18:34;17.50;99.90
25963;DHT22;13760;52.588;13.406;2023-09-19T04:21:03;17.50;99.90
25963;DHT22;13760;52.588;13.406;2023-09-19T04:23:31;17.40;99.90
25963;DHT22;13760;52.588;13.406;2023-09-19T04:25:56;17.40;99.90
25963;DHT22;13760;52.588;13.406;2023-09-19T04:28:23;17.40;99.90
25963;DHT22;13760;52.588;13.406;2023-09-19T04:30:51;17.30;99.90
25963;DHT22;13760;52.588;13.406;2023-09-19T04:33:19;17.30;99.90
25963;DHT22;13760;52.588;13.406;2023-09-19T04:35:45;17.30;99.90
25963;DHT22;13760;52.588;13.406;2023-09-19T04:38:13;17.30;99.90
25963;DHT22;13760;52.588;13.406;2023-09-19T04:40:40;17.30;99.90
25963;DHT22;13760;52.588;13.406;2023-09-19T04:43:05;17.20;99.90
25963;DHT22;13760;52.588;13.406;2023-09-19T04:45:32;17.20;99.90
25963;DHT22;13760;52.588;13.406;2023-09-19T04:47:58;17.20;99.90
25963;DHT22;13760;52.588;13.406;2023-09-19T04:50:24;17.20;99.90
25963;DHT22;13760;52.588;13.406;2023-09-19T04:52:52;17.10;99.90
25963;DHT22;13760;52.588;13.406;2023-09-19T04:55:19;17.10;99.90
25963;DHT22;13760;52.588;13.406;2023-09-19T04:57:49;17.10;99.90
25963;DHT22;13760;52.588;13.406;2023-09-19T05:00:16;17.10;99.90
25963;DHT22;13760;52.588;13.406;2023-09-19T05:02:48;17.10;99.90
25963;DHT22;13760;52.588;13.406;2023-09-19T05:05:14;17.10;99.90
25963;DHT22;13760;52.588;13.406;2023-09-19T05:07:42;17.10;99.90
25963;DHT22;13760;52.588;13.406;2023-09-19T05:10:08;17.00;99.90
25963;DHT22;13760;52.588;13.406;2023-09-19T05:12:35;17.00;99.90
25963;DHT22;13760;52.588;13.406;2023-09-19T05:15:08;17.00;99.90
25963;DHT22;13760;52.588;13.406;2023-09-19T05:17:34;17.00;99.90
25963;DHT22;13760;52.588;13.406;2023-09-19T05:20:00;16.90;99.90
25963;DHT22;13760;52.588;13.406;2023-09-19T05:22:50;16.90;99.90
25963;DHT22;13760;52.588;13.406;2023-09-19T05:25:15;16.90;99.90
25963;DHT22;13760;52.588;13.406;2023-09-19T05:27:44;16.90;99.90
25963;DHT22;13760;52.588;13.406;2023-09-19T05:30:10;16.90;99.90
25963;DHT22;13760;52.588;13.406;2023-09-19T05:32:35;16.90;99.90
25963;DHT22;13760;52.588;13.406;2023-09-19T05:35:01;16.80;99.90
25963;DHT22;13760;52.588;13.406;2023-09-19T05:37:27;16.80;99.90
25963;DHT22;13760;52.588;13.406;2023-09-19T05:39:52;16.80;99.90
25963;DHT22;13760;52.588;13.406;2023-09-19T05:42:19;16.80;99.90
25963;DHT22;13760;52.588;13.406;2023-09-19T05:44:44;16.80;99.90
25963;DHT22;13760;52.588;13.406;2023-09-19T05:47:10;16.80;99.90
25963;DHT22;13760;52.588;13.406;2023-09-19T05:49:35;16.70;99.90
25963;DHT22;13760;52.588;13.406;2023-09-19T05:52:07;16.70;99.90
25963;DHT22;13760;52.588;13.406;2023-09-19T05:54:33;16.70;99.90
25963;DHT22;13760;52.588;13.406;2023-09-19T05:57:00;16.80;99.90
25963;DHT22;13760;52.588;13.406;2023-09-19T05:59:25;16.80;99.90
25963;DHT22;13760;52.588;13.406;2023-09-19T06:01:51;16.80;99.90
25963;DHT22;13760;52.588;13.406;2023-09-19T06:04:17;16.80;99.90
25963;DHT22;13760;52.588;13.406;2023-09-19T06:06:44;16.80;99.90
25963;DHT22;13760;52.588;13.406;2023-09-19T06:09:10;16.80;99.90
25963;DHT22;13760;52.588;13.406;2023-09-19T06:11:35;16.80;99.90
25963;DHT22;13760;52.588;13.406;2023-09-19T06:14:02;16.80;99.90
25963;DHT22;13760;52.588;13.406;2023-09-19T06:16:31;16.90;99.90
25963;DHT22;13760;52.588;13.406;2023-09-19T06:19:00;16.90;99.90
25963;DHT22;13760;52.588;13.406;2023-09-19T06:21:27;16.90;99.90
25963;DHT22;13760;52.588;13.406;2023-09-19T06:23:53;17.00;99.90
25963;DHT22;13760;52.588;13.406;2023-09-19T06:26:19;17.00;99.90
25963;DHT22;13760;52.588;13.406;2023-09-19T06:28:44;17.10;99.90
25963;DHT22;13760;52.588;13.406;2023-09-19T06:31:10;17.10;99.90
25963;DHT22;13760;52.588;13.406;2023-09-19T06:33:37;17.10;99.90
25963;DHT22;13760;52.588;13.406;2023-09-19T06:36:06;17.20;99.90
25963;DHT22;13760;52.588;13.406;2023-09-19T06:38:32;17.20;99.90
25963;DHT22;13760;52.588;13.406;2023-09-19T06:40:59;17.20;99.90
25963;DHT22;13760;52.588;13.406;2023-09-19T06:43:27;17.30;99.90
25963;DHT22;13760;52.588;13.406;2023-09-19T06:45:53;17.30;99.90
25963;DHT22;13760;52.588;13.406;2023-09-19T06:48:20;17.40;99.90
25963;DHT22;13760;52.588;13.406;2023-09-19T06:50:46;17.50;99.90
25963;DHT22;13760;52.588;13.406;2023-09-19T06:53:13;17.60;99.90
25963;DHT22;13760;52.588;13.406;2023-09-19T06:55:39;17.70;99.90
25963;DHT22;13760;52.588;13.406;2023-09-19T06:58:05;17.70;99.90
25963;DHT22;13760;52.588;13.406;2023-09-19T07:00:31;17.80;99.90
25963;DHT22;13760;52.588;13.406;2023-09-19T07:03:08;17.90;99.90
25963;DHT22;13760;52.588;13.406;2023-09-19T07:05:37;18.00;99.90
25963;DHT22;13760;52.588;13.406;2023-09-19T07:08:04;18.10;99.90
25963;DHT22;13760;52.588;13.406;2023-09-19T07:10:31;18.30;99.90
25963;DHT22;13760;52.588;13.406;2023-09-19T07:13:05;18.40;99.90
25963;DHT22;13760;52.588;13.406;2023-09-19T07:15:34;18.50;99.90
25963;DHT22;13760;52.588;13.406;2023-09-19T07:18:05;18.60;99.90
25963;DHT22;13760;52.588;13.406;2023-09-19T07:20:31;18.60;99.90
25963;DHT22;13760;52.588;13.406;2023-09-19T07:22:58;18.70;99.90
25963;DHT22;13760;52.588;13.406;2023-09-19T07:25:27;18.60;99.90
25963;DHT22;13760;52.588;13.406;2023-09-19T07:27:55;18.70;99.90
25963;DHT22;13760;52.588;13.406;2023-09-19T07:30:21;18.70;99.90
25963;DHT22;13760;52.588;13.406;2023-09-19T07:32:47;18.60;99.90
25963;DHT22;13760;52.588;13.406;2023-09-19T07:35:13;18.60;99.90
25963;DHT22;13760;52.588;13.406;2023-09-19T07:37:40;18.60;99.90
25963;DHT22;13760;52.588;13.406;2023-09-19T07:40:06;18.50;99.90
25963;DHT22;13760;52.588;13.406;2023-09-19T07:42:35;18.60;99.90
25963;DHT22;13760;52.588;13.406;2023-09-19T07:45:04;18.50;99.90
25963;DHT22;13760;52.588;13.406;2023-09-19T07:47:30;18.60;99.90
25963;DHT22;13760;52.588;13.406;2023-09-19T07:49:58;18.60;99.90
25963;DHT22;13760;52.588;13.406;2023-09-19T07:52:24;18.50;99.90
25963;DHT22;13760;52.588;13.406;2023-09-19T07:54:49;18.50;99.90
25963;DHT22;13760;52.588;13.406;2023-09-19T07:57:15;18.60;99.90
25963;DHT22;13760;52.588;13.406;2023-09-19T07:59:41;18.70;99.90
25963;DHT22;13760;52.588;13.406;2023-09-19T08:02:07;18.90;99.90
25963;DHT22;13760;52.588;13.406;2023-09-19T08:04:35;18.90;99.90
25963;DHT22;13760;52.588;13.406;2023-09-19T08:07:00;19.00;99.90
25963;DHT22;13760;52.588;13.406;2023-09-19T08:09:28;19.00;99.90
25963;DHT22;13760;52.588;13.406;2023-09-19T08:11:58;19.00;99.90
25963;DHT22;13760;52.588;13.406;2023-09-19T08:14:24;19.00;99.90
25963;DHT22;13760;52.588;13.406;2023-09-19T08:16:51;19.00;99.90
25963;DHT22;13760;52.588;13.406;2023-09-19T08:19:16;19.00;99.90
25963;DHT22;13760;52.588;13.406;2023-09-19T08:21:42;18.90;99.90
25963;DHT22;13760;52.588;13.406;2023-09-19T08:24:12;18.90;99.90
25963;DHT22;13760;52.588;13.406;2023-09-19T08:26:37;18.90;99.90
25963;DHT22;13760;52.588;13.406;2023-09-19T08:29:03;18.90;99.90
25963;DHT22;13760;52.588;13.406;2023-09-19T08:31:30;18.90;99.90
25963;DHT22;13760;52.588;13.406;2023-09-19T08:33:55;18.90;99.90
25963;DHT22;13760;52.588;13.406;2023-09-19T08:36:21;18.90;99.90
25963;DHT22;13760;52.588;13.406;2023-09-19T08:38:46;19.00;99.90
25963;DHT22;13760;52.588;13.406;2023-09-19T08:41:12;19.00;99.90
25963;DHT22;13760;52.588;13.406;2023-09-19T08:43:37;19.10;99.90
25963;DHT22;13760;52.588;13.406;2023-09-19T08:46:09;19.10;99.90
25963;DHT22;13760;52.588;13.406;2023-09-19T08:48:39;19.20;99.90
25963;DHT22;13760;52.588;13.406;2023-09-19T08:54:22;19.50;99.90
25963;DHT22;13760;52.588;13.406;2023-09-19T08:56:53;19.60;99.90
25963;DHT22;13760;52.588;13.406;2023-09-19T08:59:22;19.70;99.90
25963;DHT22;13760;52.588;13.406;2023-09-19T09:01:53;19.70;99.90
25963;DHT22;13760;52.588;13.406;2023-09-19T09:04:19;19.70;99.90
25963;DHT22;13760;52.588;13.406;2023-09-19T09:06:45;19.60;99.90
25963;DHT22;13760;52.588;13.406;2023-09-19T09:09:14;19.40;99.90
25963;DHT22;13760;52.588;13.406;2023-09-19T09:11:40;19.40;99.90
25963;DHT22;13760;52.588;13.406;2023-09-19T09:14:07;19.40;99.90
25963;DHT22;13760;52.588;13.406;2023-09-19T09:16:36;19.50;99.90
25963;DHT22;13760;52.588;13.406;2023-09-19T09:19:02;19.60;99.90
25963;DHT22;13760;52.588;13.406;2023-09-19T09:21:28;19.60;99.90
25963;DHT22;13760;52.588;13.406;2023-09-19T09:23:54;19.80;99.90
25963;DHT22;13760;52.588;13.406;2023-09-19T09:29:04;20.00;99.90
25963;DHT22;13760;52.588;13.406;2023-09-19T09:31:30;19.90;99.90
25963;DHT22;13760;52.588;13.406;2023-09-19T09:33:56;19.80;99.90
25963;DHT22;13760;52.588;13.406;2023-09-19T09:36:43;19.70;99.90
25963;DHT22;13760;52.588;13.406;2023-09-19T09:39:13;19.60;99.90
25963;DHT22;13760;52.588;13.406;2023-09-19T09:41:44;19.50;99.90
25963;DHT22;13760;52.588;13.406;2023-09-19T09:44:15;19.40;99.90
25963;DHT22;13760;52.588;13.406;2023-09-19T09:46:45;19.50;99.90
25963;DHT22;13760;52.588;13.406;2023-09-19T09:49:24;19.50;99.90
25963;DHT22;13760;52.588;13.406;2023-09-19T09:54:26;19.50;99.90
25963;DHT22;13760;52.588;13.406;2023-09-19T09:57:03;19.40;99.90
25963;DHT22;13760;52.588;13.406;2023-09-19T09:59:56;19.40;99.90
25963;DHT22;13760;52.588;13.406;2023-09-19T10:02:40;19.40;99.90
25963;DHT22;13760;52.588;13.406;2023-09-19T10:05:20;19.30;99.90
25963;DHT22;13760;52.588;13.406;2023-09-19T10:07:46;19.20;99.90
25963;DHT22;13760;52.588;13.406;2023-09-19T10:10:32;19.10;99.90
25963;DHT22;13760;52.588;13.406;2023-09-19T10:13:06;19.10;99.90
25963;DHT22;13760;52.588;13.406;2023-09-19T10:15:33;19.10;99.90
25963;DHT22;13760;52.588;13.406;2023-09-19T10:18:04;19.10;99.90
25963;DHT22;13760;52.588;13.406;2023-09-19T10:20:30;19.00;99.90
25963;DHT22;13760;52.588;13.406;2023-09-19T10:23:11;18.90;99.90
25963;DHT22;13760;52.588;13.406;2023-09-19T10:25:39;19.00;99.90
25963;DHT22;13760;52.588;13.406;2023-09-19T10:28:11;19.10;99.90
25963;DHT22;13760;52.588;13.406;2023-09-19T10:30:38;19.30;99.90
25963;DHT22;13760;52.588;13.406;2023-09-19T10:33:11;19.50;99.90
25963;DHT22;13760;52.588;13.406;2023-09-19T10:35:48;19.80;99.90
25963;DHT22;13760;52.588;13.406;2023-09-19T10:38:20;19.90;99.90
25963;DHT22;13760;52.588;13.406;2023-09-19T10:40:54;20.00;99.90
25963;DHT22;13760;52.588;13.406;2023-09-19T10:43:21;20.20;99.90
25963;DHT22;13760;52.588;13.406;2023-09-19T10:45:50;20.30;99.90
25963;DHT22;13760;52.588;13.406;2023-09-19T10:48:18;20.50;99.90
25963;DHT22;13760;52.588;13.406;2023-09-19T10:51:02;20.70;99.90
25963;DHT22;13760;52.588;13.406;2023-09-19T10:53:44;20.90;99.90
25963;DHT22;13760;52.588;13.406;2023-09-19T10:56:11;21.10;99.90
25963;DHT22;13760;52.588;13.406;2023-09-19T10:58:44;21.20;99.90
25963;DHT22;13760;52.588;13.406;2023-09-19T11:01:11;21.30;99.90
25963;DHT22;13760;52.588;13.406;2023-09-19T11:03:43;21.40;99.90
25963;DHT22;13760;52.588;13.406;2023-09-19T11:09:02;21.20;99.20
25963;DHT22;13760;52.588;13.406;2023-09-19T11:11:51;21.00;99.20
25963;DHT22;13760;52.588;13.406;2023-09-19T11:30:48;20.60;99.90
25963;DHT22;13760;52.588;13.406;2023-09-19T11:33:21;20.70;99.40
25963;DHT22;13760;52.588;13.406;2023-09-19T11:36:07;20.70;98.60
25963;DHT22;13760;52.588;13.406;2023-09-19T11:47:14;20.60;98.60
25963;DHT22;13760;52.588;13.406;2023-09-19T11:49:16;20.60;99.40
25963;DHT22;13760;52.588;13.406;2023-09-19T11:51:46;20.80;98.40
25963;DHT22;13760;52.588;13.406;2023-09-19T11:54:13;20.80;97.10
25963;DHT22;13760;52.588;13.406;2023-09-19T11:56:46;20.80;97.20
25963;DHT22;13760;52.588;13.406;2023-09-19T11:59:29;20.70;96.70
25963;DHT22;13760;52.588;13.406;2023-09-19T12:02:04;20.80;96.50
25963;DHT22;13760;52.588;13.406;2023-09-19T12:04:44;20.80;96.00
25963;DHT22;13760;52.588;13.406;2023-09-19T12:07:15;20.80;96.50
25963;DHT22;13760;52.588;13.406;2023-09-19T12:09:42;20.70;95.40
25963;DHT22;13760;52.588;13.406;2023-09-19T12:12:19;20.70;96.20
25963;DHT22;13760;52.588;13.406;2023-09-19T12:14:48;20.80;96.90
25963;DHT22;13760;52.588;13.406;2023-09-19T12:17:14;20.80;96.50
25963;DHT22;13760;52.588;13.406;2023-09-19T12:19:49;20.90;95.20
25963;DHT22;13760;52.588;13.406;2023-09-19T12:22:15;20.90;96.20
25963;DHT22;13760;52.588;13.406;2023-09-19T12:24:43;20.90;94.90
25963;DHT22;13760;52.588;13.406;2023-09-19T12:27:10;21.00;95.00
25963;DHT22;13760;52.588;13.406;2023-09-19T12:29:47;21.10;94.40
25963;DHT22;13760;52.588;13.406;2023-09-19T12:32:36;21.10;93.50
25963;DHT22;13760;52.588;13.406;2023-09-19T12:35:06;21.10;93.10
25963;DHT22;13760;52.588;13.406;2023-09-19T12:37:43;21.20;93.40
25963;DHT22;13760;52.588;13.406;2023-09-19T12:40:13;21.20;93.90
25963;DHT22;13760;52.588;13.406;2023-09-19T12:42:48;21.30;93.80
25963;DHT22;13760;52.588;13.406;2023-09-19T12:45:15;21.40;93.10
25963;DHT22;13760;52.588;13.406;2023-09-19T12:51:13;21.50;92.40
25963;DHT22;13760;52.588;13.406;2023-09-19T12:53:39;21.50;92.00
25963;DHT22;13760;52.588;13.406;2023-09-19T12:56:12;21.60;92.30
25963;DHT22;13760;52.588;13.406;2023-09-19T13:01:19;21.60;90.50
25963;DHT22;13760;52.588;13.406;2023-09-19T13:03:45;21.40;91.20
25963;DHT22;13760;52.588;13.406;2023-09-19T13:06:11;21.30;91.40
25963;DHT22;13760;52.588;13.406;2023-09-19T13:08:40;21.20;91.90
25963;DHT22;13760;52.588;13.406;2023-09-19T13:11:16;21.20;91.60
25963;DHT22;13760;52.588;13.406;2023-09-19T13:13:51;21.10;92.10
25963;DHT22;13760;52.588;13.406;2023-09-19T13:16:21;21.10;92.20
25963;DHT22;13760;52.588;13.406;2023-09-19T13:18:52;21.00;92.20
25963;DHT22;13760;52.588;13.406;2023-09-19T13:21:32;21.00;91.80
25963;DHT22;13760;52.588;13.406;2023-09-19T13:24:22;21.00;91.80
25963;DHT22;13760;52.588;13.406;2023-09-19T13:26:48;20.90;92.40
25963;DHT22;13760;52.588;13.406;2023-09-19T13:29:15;20.90;93.00
25963;DHT22;13760;52.588;13.406;2023-09-19T13:31:46;20.90;92.50
25963;DHT22;13760;52.588;13.406;2023-09-19T13:34:12;20.80;92.90
25963;DHT22;13760;52.588;13.406;2023-09-19T13:36:39;20.80;93.60
25963;DHT22;13760;52.588;13.406;2023-09-19T13:39:05;20.70;92.70
25963;DHT22;13760;52.588;13.406;2023-09-19T13:41:32;20.70;93.10
25963;DHT22;13760;52.588;13.406;2023-09-19T13:43:57;20.70;93.10
25963;DHT22;13760;52.588;13.406;2023-09-19T13:46:23;20.70;92.30
25963;DHT22;13760;52.588;13.406;2023-09-19T13:48:52;20.70;92.20
25963;DHT22;13760;52.588;13.406;2023-09-19T13:51:20;20.60;91.80
25963;DHT22;13760;52.588;13.406;2023-09-19T13:53:48;20.60;91.80
25963;DHT22;13760;52.588;13.406;2023-09-19T13:56:15;20.60;91.80
25963;DHT22;13760;52.588;13.406;2023-09-19T13:58:41;20.60;92.40
25963;DHT22;13760;52.588;13.406;2023-09-19T14:01:07;20.50;92.80
25963;DHT22;13760;52.588;13.406;2023-09-19T14:03:38;20.50;92.40
25963;DHT22;13760;52.588;13.406;2023-09-19T14:06:04;20.60;92.80
25963;DHT22;13760;52.588;13.406;2023-09-19T14:08:30;20.60;93.30
25963;DHT22;13760;52.588;13.406;2023-09-19T14:10:56;20.60;92.10
25963;DHT22;13760;52.588;13.406;2023-09-19T14:13:21;20.60;93.10
25963;DHT22;13760;52.588;13.406;2023-09-19T14:15:47;20.60;92.50
25963;DHT22;13760;52.588;13.406;2023-09-19T14:18:12;20.60;92.90
25963;DHT22;13760;52.588;13.406;2023-09-19T14:20:38;20.60;92.60
25963;DHT22;13760;52.588;13.406;2023-09-19T14:23:07;20.70;92.60
25963;DHT22;13760;52.588;13.406;2023-09-19T14:25:36;20.70;93.50
25963;DHT22;13760;52.588;13.406;2023-09-19T14:28:04;20.70;93.90
25963;DHT22;13760;52.588;13.406;2023-09-19T14:30:29;20.80;93.40
25963;DHT22;13760;52.588;13.406;2023-09-19T14:32:55;20.70;93.40
25963;DHT22;13760;52.588;13.406;2023-09-19T14:35:23;20.70;93.00
25963;DHT22;13760;52.588;13.406;2023-09-19T14:37:48;20.80;93.70
25963;DHT22;13760;52.588;13.406;2023-09-19T14:40:17;20.70;93.90
25963;DHT22;13760;52.588;13.406;2023-09-19T14:42:43;20.70;94.70
25963;DHT22;13760;52.588;13.406;2023-09-19T14:45:10;20.70;93.60
25963;DHT22;13760;52.588;13.406;2023-09-19T14:47:37;20.70;93.60
25963;DHT22;13760;52.588;13.406;2023-09-19T14:50:03;20.80;94.20
25963;DHT22;13760;52.588;13.406;2023-09-19T14:52:32;20.70;94.60
25963;DHT22;13760;52.588;13.406;2023-09-19T14:54:59;20.80;94.10
25963;DHT22;13760;52.588;13.406;2023-09-19T14:57:24;20.70;92.70
25963;DHT22;13760;52.588;13.406;2023-09-19T14:59:54;20.70;93.70
25963;DHT22;13760;52.588;13.406;2023-09-19T15:02:20;20.70;94.30
25963;DHT22;13760;52.588;13.406;2023-09-19T15:04:46;20.60;93.50
25963;DHT22;13760;52.588;13.406;2023-09-19T15:07:13;20.60;94.50
25963;DHT22;13760;52.588;13.406;2023-09-19T15:09:41;20.60;94.50
25963;DHT22;13760;52.588;13.406;2023-09-19T15:12:07;20.60;94.20
25963;DHT22;13760;52.588;13.406;2023-09-19T15:14:33;20.60;94.10
25963;DHT22;13760;52.588;13.406;2023-09-19T15:16:58;20.50;93.30
25963;DHT22;13760;52.588;13.406;2023-09-19T15:19:24;20.50;94.00
25963;DHT22;13760;52.588;13.406;2023-09-19T15:21:49;20.50;95.20
25963;DHT22;13760;52.588;13.406;2023-09-19T15:24:15;20.40;95.00
25963;DHT22;13760;52.588;13.406;2023-09-19T15:26:43;20.40;94.10
25963;DHT22;13760;52.588;13.406;2023-09-19T15:29:10;20.40;94.50
25963;DHT22;13760;52.588;13.406;2023-09-19T15:31:36;20.30;94.50
25963;DHT22;13760;52.588;13.406;2023-09-19T15:34:02;20.30;94.10
25963;DHT22;13760;52.588;13.406;2023-09-19T15:36:29;20.30;93.00
25963;DHT22;13760;52.588;13.406;2023-09-19T15:39:05;20.30;94.00
25963;DHT22;13760;52.588;13.406;2023-09-19T15:41:39;20.30;93.60
25963;DHT22;13760;52.588;13.406;2023-09-19T15:44:12;20.30;94.10
25963;DHT22;13760;52.588;13.406;2023-09-19T15:46:37;20.20;93.40
25963;DHT22;13760;52.588;13.406;2023-09-19T15:49:03;20.10;93.60
25963;DHT22;13760;52.588;13.406;2023-09-19T15:51:29;20.20;94.60
25963;DHT22;13760;52.588;13.406;2023-09-19T15:53:55;20.10;94.70
25963;DHT22;13760;52.588;13.406;2023-09-19T15:56:23;20.10;94.50
25963;DHT22;13760;52.588;13.406;2023-09-19T15:58:50;20.10;94.70
25963;DHT22;13760;52.588;13.406;2023-09-19T16:01:16;20.00;94.90
25963;DHT22;13760;52.588;13.406;2023-09-19T16:03:51;20.00;94.60
25963;DHT22;13760;52.588;13.406;2023-09-19T16:06:27;20.00;95.40
25963;DHT22;13760;52.588;13.406;2023-09-19T16:08:55;20.00;94.80
25963;DHT22;13760;52.588;13.406;2023-09-19T16:11:21;20.00;95.40
25963;DHT22;13760;52.588;13.406;2023-09-19T16:13:48;19.90;94.70
25963;DHT22;13760;52.588;13.406;2023-09-19T16:16:15;19.90;94.90
25963;DHT22;13760;52.588;13.406;2023-09-19T16:18:54;19.90;94.80